createdAt,value
2022-10-20T03:58:56.697Z,0.00
2022-10-20T03:59:56.600Z,0.00
2022-10-20T04:00:54.985Z,0.00
2022-10-20T04:01:56.655Z,0.00
2022-10-20T04:02:54.975Z,0.00
2022-10-20T04:03:54.964Z,0.00
2022-10-20T04:04:54.958Z,0.00
2022-10-20T04:05:54.955Z,0.00
2022-10-20T04:06:56.621Z,0.00
2022-10-20T04:07:56.619Z,0.00
2022-10-20T04:08:56.654Z,0.00
2022-10-20T04:09:54.933Z,0.00
2022-10-20T04:10:54.930Z,0.00
2022-10-20T04:11:54.927Z,0.00
2022-10-20T04:12:54.922Z,0.00
2022-10-20T04:13:56.122Z,0.00
2022-10-20T04:14:54.915Z,0.00
2022-10-20T04:15:54.904Z,0.00
2022-10-20T04:16:54.900Z,0.00
2022-10-20T04:17:54.901Z,0.00
2022-10-20T04:18:56.633Z,0.00
2022-10-20T04:19:54.891Z,0.00
2022-10-20T04:20:55.883Z,0.00
2022-10-20T04:21:54.896Z,0.00
2022-10-20T04:22:56.614Z,0.00
2022-10-20T04:23:56.128Z,0.00
2022-10-20T04:24:54.870Z,0.00
2022-10-20T04:25:54.870Z,0.00
2022-10-20T04:26:56.618Z,0.00
2022-10-20T04:27:56.634Z,0.00
2022-10-20T04:28:56.132Z,0.00
2022-10-20T04:29:56.625Z,0.00
2022-10-20T04:30:55.861Z,0.00
2022-10-20T04:31:56.622Z,0.00
2022-10-20T04:32:56.636Z,0.00
2022-10-20T04:33:56.627Z,0.00
2022-10-20T04:34:56.623Z,0.00
2022-10-20T04:35:56.632Z,0.00
2022-10-20T04:36:56.636Z,0.00
2022-10-20T04:37:56.628Z,0.00
2022-10-20T04:38:56.636Z,0.00
2022-10-20T04:39:56.639Z,0.00
2022-10-20T04:40:59.104Z,0.00
2022-10-20T04:41:56.645Z,0.00
2022-10-20T04:42:56.636Z,0.00
2022-10-20T04:43:56.646Z,0.00
2022-10-20T04:45:56.632Z,0.00
2022-10-20T04:46:56.644Z,0.00
2022-10-20T04:47:56.635Z,0.00
2022-10-20T04:48:56.650Z,0.00
2022-10-20T04:49:55.785Z,0.00
2022-10-20T04:50:56.641Z,0.00
2022-10-20T04:52:00.805Z,0.00
2022-10-20T04:52:56.646Z,0.00
2022-10-20T04:53:56.727Z,0.00
2022-10-20T04:54:56.643Z,0.00
2022-10-20T04:55:56.650Z,0.00
2022-10-20T04:56:56.656Z,0.00
2022-10-20T04:57:56.645Z,0.00
2022-10-20T04:58:56.656Z,0.00
2022-10-20T04:59:56.660Z,0.00
2022-10-20T05:00:56.656Z,0.00
2022-10-20T05:01:56.682Z,0.00
2022-10-20T05:02:56.669Z,0.00
2022-10-20T05:03:56.666Z,0.00
2022-10-20T05:04:56.651Z,0.00
2022-10-20T05:05:56.664Z,0.00
2022-10-20T05:06:56.650Z,0.00
2022-10-20T05:07:54.726Z,0.00
2022-10-20T05:08:54.769Z,0.00
2022-10-20T05:09:54.741Z,0.00
2022-10-20T05:10:56.668Z,0.00
2022-10-20T05:11:54.711Z,0.00
2022-10-20T05:12:54.709Z,0.00
2022-10-20T05:13:54.715Z,0.00
2022-10-20T05:14:54.712Z,0.00
2022-10-20T05:15:56.673Z,0.00
2022-10-20T05:16:54.698Z,0.00
2022-10-20T05:17:54.695Z,0.00
2022-10-20T05:18:56.683Z,0.00
2022-10-20T05:19:54.689Z,0.00
2022-10-20T05:21:08.205Z,0.00
2022-10-20T05:21:54.684Z,0.00
2022-10-20T05:22:54.682Z,0.00
2022-10-20T05:23:56.179Z,0.00
2022-10-20T05:24:58.401Z,0.00
2022-10-20T05:25:55.678Z,0.00
2022-10-20T05:26:57.172Z,0.00
2022-10-20T05:27:56.174Z,0.00
2022-10-20T05:28:55.679Z,0.00
2022-10-20T05:29:56.171Z,0.00
2022-10-20T05:30:59.112Z,0.00
2022-10-20T05:31:56.185Z,0.00
2022-10-20T05:32:56.172Z,0.00
2022-10-20T05:33:56.176Z,0.00
2022-10-20T05:34:56.184Z,0.00
2022-10-20T05:35:56.176Z,4.00
2022-10-20T05:36:56.186Z,0.00
2022-10-20T05:37:56.179Z,4.00
2022-10-20T05:38:56.178Z,4.00
2022-10-20T05:39:56.190Z,4.00
2022-10-20T05:40:56.179Z,0.00
2022-10-20T05:41:56.199Z,4.00
2022-10-20T05:42:56.176Z,4.00
2022-10-20T05:43:56.201Z,8.00
2022-10-20T05:44:54.608Z,8.00
2022-10-20T05:45:54.612Z,8.00
2022-10-20T05:46:54.603Z,12.00
2022-10-20T05:47:54.604Z,12.00
2022-10-20T05:48:56.200Z,16.00
2022-10-20T05:49:54.597Z,16.00
2022-10-20T05:50:54.607Z,20.00
2022-10-20T05:51:56.206Z,24.00
2022-10-20T05:52:54.587Z,24.00
2022-10-20T05:53:56.193Z,24.00
2022-10-20T05:54:55.579Z,28.00
2022-10-20T05:55:56.703Z,32.00
2022-10-20T05:56:54.567Z,36.00
2022-10-20T05:57:56.193Z,40.00
2022-10-20T05:58:55.565Z,44.00
2022-10-20T05:59:56.195Z,48.00
2022-10-20T06:00:55.713Z,48.00
2022-10-20T06:01:56.197Z,52.00
2022-10-20T06:02:54.552Z,60.00
2022-10-20T06:03:56.245Z,64.00
2022-10-20T06:04:56.199Z,68.00
2022-10-20T06:05:56.208Z,76.00
2022-10-20T06:06:56.253Z,84.00
2022-10-20T06:07:56.201Z,88.00
2022-10-20T06:08:56.258Z,96.00
2022-10-20T06:09:56.214Z,104.00
2022-10-20T06:10:56.206Z,112.00
2022-10-20T06:11:56.256Z,120.00
2022-10-20T06:12:56.224Z,128.00
2022-10-20T06:13:56.205Z,136.00
2022-10-20T06:14:56.219Z,144.00
2022-10-20T06:15:56.211Z,152.00
2022-10-20T06:16:54.504Z,160.00
2022-10-20T06:17:54.499Z,172.00
2022-10-20T06:18:54.509Z,184.00
2022-10-20T06:19:56.226Z,192.00
2022-10-20T06:20:55.490Z,208.00
2022-10-20T06:21:54.492Z,220.00
2022-10-20T06:22:56.225Z,232.00
2022-10-20T06:23:55.484Z,244.00
2022-10-20T06:24:56.251Z,256.00
2022-10-20T06:25:56.216Z,272.00
2022-10-20T06:26:56.217Z,288.00
2022-10-20T06:27:56.216Z,300.00
2022-10-20T06:29:01.185Z,316.00
2022-10-20T06:29:55.736Z,332.00
2022-10-20T06:30:56.220Z,352.00
2022-10-20T06:31:56.230Z,372.00
2022-10-20T06:32:56.251Z,384.00
2022-10-20T06:33:54.451Z,404.00
2022-10-20T06:34:56.237Z,424.00
2022-10-20T06:35:56.236Z,444.00
2022-10-20T06:36:56.239Z,460.00
2022-10-20T06:37:56.253Z,476.00
2022-10-20T06:38:56.234Z,488.00
2022-10-20T06:39:56.230Z,504.00
2022-10-20T06:40:56.240Z,516.00
2022-10-20T06:41:56.238Z,532.00
2022-10-20T06:43:56.249Z,548.00
2022-10-20T06:44:54.413Z,560.00
2022-10-20T06:45:54.415Z,580.00
2022-10-20T06:46:54.414Z,596.00
2022-10-20T06:47:56.252Z,608.00
2022-10-20T06:48:58.671Z,624.00
2022-10-20T06:49:54.400Z,636.00
2022-10-20T06:50:54.406Z,652.00
2022-10-20T06:51:54.514Z,668.00
2022-10-20T06:52:54.405Z,684.00
2022-10-20T06:53:55.754Z,696.00
2022-10-20T06:54:54.400Z,712.00
2022-10-20T06:55:54.384Z,724.00
2022-10-20T06:56:56.243Z,736.00
2022-10-20T06:57:56.241Z,744.00
2022-10-20T06:58:56.256Z,756.00
2022-10-20T06:59:56.286Z,768.00
2022-10-20T07:00:56.247Z,784.00
2022-10-20T07:01:56.296Z,800.00
2022-10-20T07:02:56.254Z,812.00
2022-10-20T07:03:56.251Z,820.00
2022-10-20T07:04:54.358Z,832.00
2022-10-20T07:05:54.350Z,844.00
2022-10-20T07:06:56.268Z,848.00
2022-10-20T07:07:54.344Z,848.00
2022-10-20T07:08:56.354Z,848.00
2022-10-20T07:09:56.251Z,848.00
2022-10-20T07:10:56.266Z,852.00
2022-10-20T07:11:56.278Z,852.00
2022-10-20T07:12:56.269Z,852.00
2022-10-20T07:13:56.258Z,852.00
2022-10-20T07:14:56.304Z,856.00
2022-10-20T07:15:56.256Z,860.00
2022-10-20T07:16:56.257Z,872.00
2022-10-20T07:17:56.282Z,884.00
2022-10-20T07:18:56.274Z,900.00
2022-10-20T07:19:56.262Z,916.00
2022-10-20T07:20:56.265Z,932.00
2022-10-20T07:21:56.275Z,956.00
2022-10-20T07:22:55.303Z,976.00
2022-10-20T07:23:55.304Z,1000.00
2022-10-20T07:24:54.298Z,1040.00
2022-10-20T07:25:56.270Z,1088.00
2022-10-20T07:26:54.306Z,1220.00
2022-10-20T07:27:55.290Z,1240.00
2022-10-20T07:28:55.961Z,1184.00
2022-10-20T07:29:56.269Z,1276.00
2022-10-20T07:30:55.782Z,1588.00
2022-10-20T07:31:55.995Z,1620.00
2022-10-20T07:32:55.772Z,1776.00
2022-10-20T07:34:07.139Z,1828.00
2022-10-20T07:34:55.773Z,1776.00
2022-10-20T07:35:55.774Z,1880.00
2022-10-20T07:36:55.793Z,2032.00
2022-10-20T07:37:55.776Z,2100.00
2022-10-20T07:38:55.779Z,2096.00
2022-10-20T07:39:55.783Z,2100.00
2022-10-20T07:40:57.337Z,1884.00
2022-10-20T07:41:55.789Z,1800.00
2022-10-20T07:42:55.795Z,1976.00
2022-10-20T07:43:55.799Z,1876.00
2022-10-20T07:44:54.242Z,1600.00
2022-10-20T07:45:55.796Z,1536.00
2022-10-20T07:46:55.233Z,1456.00
2022-10-20T07:47:54.249Z,1480.00
2022-10-20T07:48:54.232Z,1468.00
2022-10-20T07:49:55.304Z,1500.00
2022-10-20T07:50:54.227Z,1512.00
2022-10-20T07:51:54.222Z,1488.00
2022-10-20T07:52:54.228Z,1492.00
2022-10-20T07:53:58.153Z,1504.00
2022-10-20T07:55:06.330Z,1524.00
2022-10-20T07:55:55.235Z,1512.00
2022-10-20T07:56:54.221Z,1508.00
2022-10-20T07:57:56.825Z,1528.00
2022-10-20T07:58:55.803Z,1540.00
2022-10-20T07:59:55.795Z,1556.00
2022-10-20T08:00:56.222Z,1556.00
2022-10-20T08:01:57.420Z,1560.00
2022-10-20T08:02:55.799Z,1556.00
2022-10-20T08:03:55.816Z,1556.00
2022-10-20T08:04:55.813Z,1548.00
2022-10-20T08:05:55.802Z,1544.00
2022-10-20T08:06:55.803Z,1540.00
2022-10-20T08:07:55.827Z,1544.00
2022-10-20T08:08:55.871Z,1552.00
2022-10-20T08:09:55.868Z,1580.00
2022-10-20T08:10:55.821Z,1624.00
2022-10-20T08:11:56.277Z,1636.00
2022-10-20T08:12:55.812Z,1660.00
2022-10-20T08:13:55.807Z,1684.00
2022-10-20T08:15:56.186Z,1684.00
2022-10-20T08:16:56.105Z,1676.00
2022-10-20T08:17:55.815Z,1704.00
2022-10-20T08:19:56.589Z,1724.00
2022-10-20T08:20:55.831Z,1728.00
2022-10-20T08:21:55.812Z,1728.00
2022-10-20T08:22:55.829Z,1732.00
2022-10-20T08:23:55.817Z,1728.00
2022-10-20T08:24:55.817Z,1744.00
2022-10-20T08:25:55.819Z,1768.00
2022-10-20T08:26:55.818Z,1776.00
2022-10-20T08:27:55.894Z,1772.00
2022-10-20T08:28:55.825Z,1764.00
2022-10-20T08:30:06.165Z,1748.00
2022-10-20T08:30:55.822Z,1744.00
2022-10-20T08:31:55.839Z,1740.00
2022-10-20T08:32:55.838Z,1736.00
2022-10-20T08:33:55.825Z,1736.00
2022-10-20T08:34:55.841Z,1752.00
2022-10-20T08:35:55.831Z,1760.00
2022-10-20T08:36:55.842Z,1784.00
2022-10-20T08:37:55.831Z,1828.00
2022-10-20T08:38:55.830Z,1872.00
2022-10-20T08:39:55.829Z,1900.00
2022-10-20T08:40:55.830Z,1908.00
2022-10-20T08:42:08.194Z,1924.00
2022-10-20T08:42:55.832Z,1940.00
2022-10-20T08:43:55.837Z,1980.00
2022-10-20T08:44:55.848Z,2000.00
2022-10-20T08:45:55.840Z,2012.00
2022-10-20T08:46:55.846Z,1932.00
2022-10-20T08:47:55.842Z,1928.00
2022-10-20T08:48:54.111Z,1932.00
2022-10-20T08:49:55.858Z,1936.00
2022-10-20T08:50:55.101Z,1952.00
2022-10-20T08:51:54.089Z,1980.00
2022-10-20T08:52:55.355Z,2024.00
2022-10-20T08:53:55.354Z,2040.00
2022-10-20T08:54:54.087Z,2044.00
2022-10-20T08:55:54.082Z,2064.00
2022-10-20T08:56:54.081Z,2092.00
2022-10-20T08:57:55.858Z,2120.00
2022-10-20T08:58:54.076Z,2136.00
2022-10-20T08:59:54.081Z,2144.00
2022-10-20T09:00:54.085Z,2160.00
2022-10-20T09:01:54.089Z,2152.00
2022-10-20T09:02:55.887Z,2156.00
2022-10-20T09:03:54.069Z,2152.00
2022-10-20T09:04:55.870Z,2132.00
2022-10-20T09:05:55.866Z,2132.00
2022-10-20T09:06:54.062Z,2176.00
2022-10-20T09:07:55.857Z,2180.00
2022-10-20T09:08:55.978Z,2180.00
2022-10-20T09:09:55.861Z,2188.00
2022-10-20T09:10:55.878Z,2204.00
2022-10-20T09:11:55.860Z,2232.00
2022-10-20T09:12:55.869Z,2244.00
2022-10-20T09:13:55.916Z,2260.00
2022-10-20T09:14:55.875Z,2284.00
2022-10-20T09:15:55.876Z,2304.00
2022-10-20T09:17:00.126Z,2356.00
2022-10-20T09:17:55.874Z,2416.00
2022-10-20T09:18:55.869Z,2460.00
2022-10-20T09:19:55.893Z,2504.00
2022-10-20T09:20:55.063Z,2544.00
2022-10-20T09:21:55.880Z,2588.00
2022-10-20T09:22:55.103Z,2620.00
2022-10-20T09:23:54.043Z,2652.00
2022-10-20T09:24:55.894Z,2604.00
2022-10-20T09:25:54.027Z,2604.00
2022-10-20T09:26:59.049Z,2568.00
2022-10-20T09:27:54.023Z,2600.00
2022-10-20T09:29:12.058Z,2712.00
2022-10-20T09:30:54.018Z,3088.00
2022-10-20T09:31:55.890Z,3132.00
2022-10-20T09:32:55.996Z,3016.00
2022-10-20T09:33:55.879Z,2868.00
2022-10-20T09:34:55.892Z,2768.00
2022-10-20T09:35:55.882Z,2784.00
2022-10-20T09:36:55.890Z,2640.00
2022-10-20T09:37:55.883Z,2652.00
2022-10-20T09:38:55.884Z,2612.00
2022-10-20T09:39:56.121Z,2632.00
2022-10-20T09:40:55.886Z,2560.00
2022-10-20T09:41:55.948Z,2496.00
2022-10-20T09:42:55.886Z,2516.00
2022-10-20T09:43:58.027Z,2524.00
2022-10-20T09:44:55.910Z,2536.00
2022-10-20T09:45:55.889Z,2568.00
2022-10-20T09:46:55.897Z,2576.00
2022-10-20T09:47:55.905Z,2588.00
2022-10-20T09:48:55.914Z,2608.00
2022-10-20T09:49:58.449Z,2624.00
2022-10-20T09:50:55.924Z,2716.00
2022-10-20T09:51:54.005Z,2960.00
2022-10-20T09:52:54.011Z,2800.00
2022-10-20T09:53:53.988Z,2720.00
2022-10-20T09:54:55.911Z,2716.00
2022-10-20T09:55:53.985Z,2740.00
2022-10-20T09:56:55.914Z,2772.00
2022-10-20T09:57:53.989Z,2880.00
2022-10-20T09:58:53.981Z,2896.00
2022-10-20T09:59:53.987Z,3080.00
2022-10-20T10:00:55.958Z,3124.00
2022-10-20T10:01:55.922Z,3348.00
2022-10-20T10:13:10.831Z,3620.00
2022-10-20T10:14:10.785Z,3504.00
2022-10-20T10:15:10.783Z,3408.00
2022-10-20T10:16:10.784Z,3396.00
2022-10-20T10:17:10.807Z,3508.00
2022-10-20T10:18:10.807Z,4012.00
2022-10-20T10:19:10.805Z,4268.00
2022-10-20T10:20:10.801Z,4164.00
2022-10-20T10:21:10.799Z,3908.00
2022-10-20T10:22:09.172Z,3856.00
2022-10-20T10:23:09.207Z,3792.00
2022-10-20T10:24:10.804Z,3916.00
2022-10-20T10:25:09.166Z,4060.00
2022-10-20T10:26:09.161Z,3996.00
2022-10-20T10:27:09.162Z,4048.00
2022-10-20T10:28:09.160Z,3996.00
2022-10-20T10:29:10.833Z,4004.00
2022-10-20T10:30:09.158Z,4180.00
2022-10-20T10:31:09.171Z,4356.00
2022-10-20T10:32:09.165Z,4424.00
2022-10-20T10:33:10.816Z,4400.00
2022-10-20T10:34:09.154Z,4636.00
2022-10-20T10:35:10.818Z,4696.00
2022-10-20T10:36:09.155Z,4844.00
2022-10-20T10:37:10.874Z,4660.00
2022-10-20T10:38:10.815Z,4484.00
2022-10-20T10:39:09.152Z,4572.00
2022-10-20T10:40:10.806Z,4248.00
2022-10-20T10:41:10.181Z,4072.00
2022-10-20T10:42:10.813Z,3864.00
2022-10-20T10:43:10.828Z,3912.00
2022-10-20T10:44:10.810Z,4060.00
2022-10-20T10:45:10.847Z,4304.00
2022-10-20T10:46:10.159Z,4260.00
2022-10-20T10:47:09.156Z,4416.00
2022-10-20T10:48:09.155Z,4428.00
2022-10-20T10:49:09.154Z,4512.00
2022-10-20T10:50:10.838Z,4436.00
2022-10-20T10:51:10.192Z,4856.00
2022-10-20T10:52:09.156Z,5012.00
2022-10-20T10:53:10.846Z,4916.00
2022-10-20T10:54:11.907Z,4940.00
2022-10-20T10:55:14.282Z,4732.00
2022-10-20T10:56:10.175Z,4660.00
2022-10-20T10:57:11.815Z,4656.00
2022-10-20T10:58:09.179Z,4576.00
2022-10-20T10:59:09.161Z,4480.00
2022-10-20T11:00:10.837Z,4584.00
2022-10-20T11:01:10.914Z,4260.00
2022-10-20T11:02:10.831Z,4032.00
2022-10-20T11:03:10.831Z,3916.00
2022-10-20T11:04:09.163Z,3820.00
2022-10-20T11:05:10.901Z,3748.00
2022-10-20T11:06:10.846Z,3724.00
2022-10-20T11:07:09.161Z,3644.00
2022-10-20T11:08:10.880Z,3464.00
2022-10-20T11:09:10.837Z,3304.00
2022-10-20T11:10:10.848Z,3196.00
2022-10-20T11:11:10.838Z,3148.00
2022-10-20T11:12:10.850Z,3128.00
2022-10-20T11:13:10.953Z,3092.00
2022-10-20T11:14:10.863Z,3020.00
2022-10-20T11:15:10.843Z,3024.00
2022-10-20T11:16:10.841Z,3072.00
2022-10-20T11:17:10.899Z,3220.00
2022-10-20T11:18:10.844Z,3272.00
2022-10-20T11:19:10.843Z,3340.00
2022-10-20T11:20:10.856Z,3420.00
2022-10-20T11:21:10.845Z,3520.00
2022-10-20T11:22:14.054Z,3628.00
2022-10-20T11:23:10.850Z,3760.00
2022-10-20T11:24:10.859Z,3888.00
2022-10-20T11:25:10.855Z,4044.00
2022-10-20T11:26:10.850Z,4260.00
2022-10-20T11:27:09.169Z,4192.00
2022-10-20T11:28:10.362Z,4332.00
2022-10-20T11:29:09.164Z,4316.00
2022-10-20T11:30:10.870Z,4296.00
2022-10-20T11:31:09.166Z,4296.00
2022-10-20T11:32:10.859Z,4320.00
2022-10-20T11:33:10.890Z,4352.00
2022-10-20T11:34:10.866Z,4516.00
2022-10-20T11:35:10.879Z,4464.00
2022-10-20T11:36:10.872Z,4368.00
2022-10-20T11:37:10.867Z,4676.00
2022-10-20T11:38:10.861Z,4376.00
2022-10-20T11:39:10.862Z,4368.00
2022-10-20T11:40:10.887Z,4196.00
2022-10-20T11:41:10.866Z,3972.00
2022-10-20T11:42:10.864Z,3812.00
2022-10-20T11:43:11.213Z,3704.00
2022-10-20T11:44:10.900Z,3584.00
2022-10-20T11:45:10.883Z,3488.00
2022-10-20T11:46:10.877Z,3448.00
2022-10-20T11:47:10.880Z,3460.00
2022-10-20T11:48:10.885Z,3564.00
2022-10-20T11:49:10.898Z,3736.00
2022-10-20T11:50:10.901Z,3916.00
2022-10-20T11:51:10.878Z,3908.00
2022-10-20T11:52:10.948Z,3860.00
2022-10-20T11:53:10.888Z,3816.00
2022-10-20T11:54:10.887Z,3808.00
2022-10-20T11:55:10.899Z,4044.00
2022-10-20T11:56:09.172Z,3884.00
2022-10-20T11:57:09.163Z,3816.00
2022-10-20T11:58:09.156Z,3944.00
2022-10-20T11:59:10.898Z,3136.00
2022-10-20T12:00:09.202Z,2932.00
2022-10-20T12:01:09.155Z,2776.00
2022-10-20T12:02:09.189Z,2644.00
2022-10-20T12:03:09.161Z,2528.00
2022-10-20T12:04:10.935Z,2452.00
2022-10-20T12:05:10.179Z,2420.00
2022-10-20T12:06:10.170Z,2424.00
2022-10-20T12:07:10.913Z,2488.00
2022-10-20T12:08:28.748Z,2604.00
2022-10-20T12:09:10.221Z,2832.00
2022-10-20T12:10:09.159Z,2740.00
2022-10-20T12:11:10.906Z,2800.00
2022-10-20T12:12:09.150Z,2848.00
2022-10-20T12:13:10.915Z,2908.00
2022-10-20T12:14:09.173Z,3080.00
2022-10-20T12:15:10.908Z,2792.00
2022-10-20T12:16:10.921Z,2620.00
2022-10-20T12:17:10.912Z,2404.00
2022-10-20T12:18:10.904Z,2212.00
2022-10-20T12:19:10.901Z,2044.00
2022-10-20T12:20:10.935Z,1892.00
2022-10-20T12:21:10.933Z,1784.00
2022-10-20T12:22:10.904Z,1700.00
2022-10-20T12:23:10.921Z,1632.00
2022-10-20T12:24:10.922Z,1584.00
2022-10-20T12:25:10.917Z,1552.00
2022-10-20T12:26:10.920Z,1524.00
2022-10-20T12:27:10.926Z,1504.00
2022-10-20T12:28:10.921Z,1496.00
2022-10-20T12:29:10.934Z,1484.00
2022-10-20T12:30:10.910Z,1464.00
2022-10-20T12:31:10.943Z,1444.00
2022-10-20T12:32:09.133Z,1428.00
2022-10-20T12:33:10.423Z,1424.00
2022-10-20T12:34:09.132Z,1428.00
2022-10-20T12:35:09.133Z,1436.00
2022-10-20T12:36:10.917Z,1436.00
2022-10-20T12:37:10.946Z,1420.00
2022-10-20T12:38:10.960Z,1388.00
2022-10-20T12:39:09.129Z,1344.00
2022-10-20T12:40:10.922Z,1296.00
2022-10-20T12:41:10.950Z,1260.00
2022-10-20T12:42:10.936Z,1236.00
2022-10-20T12:43:10.928Z,1220.00
2022-10-20T12:44:10.933Z,1212.00
2022-10-20T12:45:10.937Z,1204.00
2022-10-20T12:46:11.021Z,1200.00
2022-10-20T12:47:10.927Z,1184.00
2022-10-20T12:48:10.941Z,1176.00
2022-10-20T12:49:12.010Z,1164.00
2022-10-20T12:50:10.937Z,1144.00
2022-10-20T12:51:10.945Z,1116.00
2022-10-20T12:52:09.133Z,1080.00
2022-10-20T12:53:09.123Z,1048.00
2022-10-20T12:54:09.115Z,996.00
2022-10-20T12:55:09.115Z,944.00
2022-10-20T12:56:10.949Z,896.00
2022-10-20T12:57:10.951Z,868.00
2022-10-20T12:58:09.105Z,844.00
2022-10-20T12:59:09.113Z,840.00
2022-10-20T13:00:09.182Z,852.00
2022-10-20T13:01:11.046Z,880.00
2022-10-20T13:02:09.104Z,904.00
2022-10-20T13:03:13.451Z,920.00
2022-10-20T13:04:09.108Z,920.00
2022-10-20T13:05:09.093Z,904.00
2022-10-20T13:06:10.098Z,864.00
2022-10-20T13:07:10.946Z,828.00
2022-10-20T13:08:10.999Z,784.00
2022-10-20T13:09:11.032Z,728.00
2022-10-20T13:10:10.946Z,660.00
2022-10-20T13:11:09.083Z,608.00
2022-10-20T13:12:10.963Z,576.00
2022-10-20T13:13:10.979Z,552.00
2022-10-20T13:14:09.084Z,540.00
2022-10-20T13:15:10.953Z,532.00
2022-10-20T13:16:09.076Z,520.00
2022-10-20T13:17:09.072Z,512.00
2022-10-20T13:18:10.974Z,508.00
2022-10-20T13:19:10.956Z,508.00
2022-10-20T13:20:10.958Z,512.00
2022-10-20T13:21:10.959Z,508.00
2022-10-20T13:22:10.968Z,504.00
2022-10-20T13:23:10.487Z,488.00
2022-10-20T13:24:11.001Z,472.00
2022-10-20T13:25:10.477Z,452.00
2022-10-20T13:26:09.057Z,432.00
2022-10-20T13:27:09.057Z,404.00
2022-10-20T13:28:09.058Z,384.00
2022-10-20T13:29:10.981Z,368.00
2022-10-20T13:30:09.057Z,356.00
2022-10-20T13:31:09.056Z,348.00
2022-10-20T13:32:11.016Z,344.00
2022-10-20T13:33:33.321Z,348.00
2022-10-20T13:34:09.061Z,356.00
2022-10-20T13:35:09.069Z,372.00
2022-10-20T13:36:09.038Z,388.00
2022-10-20T13:37:11.027Z,408.00
2022-10-20T13:38:10.030Z,428.00
2022-10-20T13:39:09.033Z,448.00
2022-10-20T13:40:10.990Z,460.00
2022-10-20T13:41:09.058Z,472.00
2022-10-20T13:42:10.997Z,472.00
2022-10-20T13:43:10.030Z,476.00
2022-10-20T13:44:11.746Z,480.00
2022-10-20T13:45:09.017Z,484.00
2022-10-20T13:46:09.037Z,492.00
2022-10-20T13:47:11.007Z,496.00
2022-10-20T13:48:09.011Z,500.00
2022-10-20T13:49:10.982Z,508.00
2022-10-20T13:50:09.084Z,508.00
2022-10-20T13:51:09.010Z,496.00
2022-10-20T13:52:10.986Z,476.00
2022-10-20T13:53:10.505Z,468.00
2022-10-20T13:54:10.011Z,460.00
2022-10-20T13:55:08.997Z,452.00
2022-10-20T13:56:10.513Z,440.00
2022-10-20T13:57:09.000Z,432.00
2022-10-20T13:58:08.992Z,424.00
2022-10-20T13:59:08.986Z,416.00
2022-10-20T14:00:10.522Z,408.00
2022-10-20T14:01:10.026Z,400.00
2022-10-20T14:02:14.085Z,384.00
2022-10-20T14:03:10.015Z,380.00
2022-10-20T14:04:08.991Z,376.00
2022-10-20T14:05:10.544Z,372.00
2022-10-20T14:06:08.971Z,372.00
2022-10-20T14:07:10.518Z,376.00
2022-10-20T14:08:10.519Z,380.00
2022-10-20T14:09:10.501Z,388.00
2022-10-20T14:10:10.505Z,396.00
2022-10-20T14:11:10.516Z,404.00
2022-10-20T14:12:10.513Z,416.00
2022-10-20T14:13:10.503Z,424.00
2022-10-20T14:14:10.506Z,432.00
2022-10-20T14:15:10.516Z,436.00
2022-10-20T14:16:10.507Z,436.00
2022-10-20T14:17:10.517Z,432.00
2022-10-20T14:18:10.527Z,420.00
2022-10-20T14:19:10.530Z,412.00
2022-10-20T14:20:10.528Z,408.00
2022-10-20T14:21:10.531Z,400.00
2022-10-20T14:22:10.512Z,400.00
2022-10-20T14:23:10.519Z,392.00
2022-10-20T14:24:10.517Z,388.00
2022-10-20T14:25:10.536Z,372.00
2022-10-20T14:26:10.562Z,360.00
2022-10-20T14:27:10.528Z,344.00
2022-10-20T14:28:08.926Z,328.00
2022-10-20T14:29:10.518Z,312.00
2022-10-20T14:30:08.908Z,292.00
2022-10-20T14:31:08.907Z,276.00
2022-10-20T14:32:10.534Z,272.00
2022-10-20T14:33:08.905Z,268.00
2022-10-20T14:34:08.906Z,268.00
2022-10-20T14:35:08.902Z,276.00
2022-10-20T14:36:08.912Z,276.00
2022-10-20T14:37:10.551Z,280.00
2022-10-20T14:38:08.889Z,276.00
2022-10-20T14:39:08.894Z,264.00
2022-10-20T14:40:08.891Z,260.00
2022-10-20T14:41:08.888Z,252.00
2022-10-20T14:42:10.536Z,244.00
2022-10-20T14:43:10.540Z,236.00
2022-10-20T14:44:18.375Z,236.00
2022-10-20T14:45:10.559Z,232.00
2022-10-20T14:46:10.533Z,228.00
2022-10-20T14:47:10.539Z,228.00
2022-10-20T14:48:09.756Z,224.00
2022-10-20T14:49:10.547Z,228.00
2022-10-20T14:50:10.543Z,228.00
2022-10-20T14:51:10.552Z,228.00
2022-10-20T14:52:12.360Z,220.00
2022-10-20T14:53:10.540Z,220.00
2022-10-20T14:54:10.571Z,216.00
2022-10-20T14:55:10.546Z,216.00
2022-10-20T14:56:10.550Z,216.00
2022-10-20T14:57:08.840Z,220.00
2022-10-20T14:58:10.060Z,224.00
2022-10-20T14:59:08.832Z,224.00
2022-10-20T15:00:08.857Z,216.00
2022-10-20T15:01:10.558Z,220.00
2022-10-20T15:02:10.577Z,220.00
2022-10-20T15:03:08.880Z,220.00
2022-10-20T15:05:08.824Z,216.00
2022-10-20T15:06:10.067Z,208.00
2022-10-20T15:07:08.824Z,196.00
2022-10-20T15:08:10.564Z,188.00
2022-10-20T15:09:12.319Z,192.00
2022-10-20T15:10:10.566Z,200.00
2022-10-20T15:11:08.808Z,216.00
2022-10-20T15:12:10.569Z,224.00
2022-10-20T15:14:08.792Z,240.00
2022-10-20T15:15:10.571Z,240.00
2022-10-20T15:16:08.799Z,240.00
2022-10-20T15:17:10.574Z,252.00
2022-10-20T15:18:08.780Z,256.00
2022-10-20T15:19:10.560Z,264.00
2022-10-20T15:20:10.580Z,276.00
2022-10-20T15:21:08.769Z,280.00
2022-10-20T15:22:10.718Z,280.00
2022-10-20T15:23:10.566Z,280.00
2022-10-20T15:24:08.763Z,276.00
2022-10-20T15:25:10.579Z,272.00
2022-10-20T15:26:10.586Z,272.00
2022-10-20T15:27:09.771Z,284.00
2022-10-20T15:28:10.572Z,308.00
2022-10-20T15:29:10.574Z,340.00
2022-10-20T15:30:10.582Z,368.00
2022-10-20T15:31:08.746Z,388.00
2022-10-20T15:32:10.602Z,416.00
2022-10-20T15:33:09.743Z,436.00
2022-10-20T15:34:08.737Z,452.00
2022-10-20T15:35:08.735Z,464.00
2022-10-20T15:36:10.588Z,452.00
2022-10-20T15:37:08.724Z,420.00
2022-10-20T15:38:08.717Z,372.00
2022-10-20T15:39:09.727Z,340.00
2022-10-20T15:40:08.723Z,328.00
2022-10-20T15:41:10.600Z,336.00
2022-10-20T15:42:08.711Z,340.00
2022-10-20T15:43:10.582Z,312.00
2022-10-20T15:44:10.587Z,272.00
2022-10-20T15:45:08.700Z,236.00
2022-10-20T15:46:10.607Z,232.00
2022-10-20T15:47:10.585Z,240.00
2022-10-20T15:48:10.696Z,252.00
2022-10-20T15:49:10.590Z,260.00
2022-10-20T15:50:09.693Z,256.00
2022-10-20T15:51:10.608Z,232.00
2022-10-20T15:52:10.613Z,196.00
2022-10-20T15:53:10.595Z,168.00
2022-10-20T15:54:10.604Z,156.00
2022-10-20T15:55:10.612Z,148.00
2022-10-20T15:56:10.611Z,148.00
2022-10-20T15:57:10.644Z,160.00
2022-10-20T15:58:10.610Z,188.00
2022-10-20T15:59:09.665Z,208.00
2022-10-20T16:00:10.623Z,228.00
2022-10-20T16:12:20.126Z,128.00
2022-10-20T16:13:19.535Z,100.00
2022-10-20T16:14:19.525Z,80.00
2022-10-20T16:15:18.518Z,64.00
2022-10-20T16:16:20.111Z,56.00
2022-10-20T16:17:18.511Z,56.00
2022-10-20T16:18:20.119Z,56.00
2022-10-20T16:19:19.513Z,56.00
2022-10-20T16:20:20.106Z,52.00
2022-10-20T16:21:18.491Z,44.00
2022-10-20T16:22:20.107Z,40.00
2022-10-20T16:23:20.118Z,28.00
2022-10-20T16:24:20.106Z,24.00
2022-10-20T16:25:18.492Z,20.00
2022-10-20T16:26:20.131Z,16.00
2022-10-20T16:27:18.472Z,12.00
2022-10-20T16:28:20.137Z,16.00
2022-10-20T16:29:18.464Z,8.00
2022-10-20T16:30:20.125Z,8.00
2022-10-20T16:31:18.474Z,8.00
2022-10-20T16:32:19.465Z,4.00
2022-10-20T16:33:18.455Z,4.00
2022-10-20T16:34:18.453Z,4.00
2022-10-20T16:35:20.626Z,4.00
2022-10-20T16:36:19.444Z,4.00
2022-10-20T16:37:18.437Z,4.00
2022-10-20T16:38:18.440Z,0.00
2022-10-20T16:39:18.428Z,0.00
2022-10-20T16:40:20.153Z,0.00
2022-10-20T16:41:20.125Z,4.00
2022-10-20T16:42:20.119Z,0.00
2022-10-20T16:43:20.124Z,4.00
2022-10-20T16:44:20.142Z,0.00
2022-10-20T16:45:20.204Z,0.00
2022-10-20T16:46:20.122Z,0.00
2022-10-20T16:47:20.129Z,0.00
2022-10-20T16:48:20.126Z,0.00
2022-10-20T16:49:20.143Z,0.00
2022-10-20T16:50:20.131Z,0.00
2022-10-20T16:51:18.397Z,0.00
2022-10-20T16:52:20.132Z,0.00
2022-10-20T16:53:18.387Z,0.00
2022-10-20T16:54:20.148Z,0.00
2022-10-20T16:55:19.379Z,0.00